Time;durP1;ratioP1;P1;durP2;ratioP2;P2;SDS_P1;SDS_P2;PMS_P1;PMS_P2;Temp;Humidity;BMP_temperature;BMP_pressure;BME280_temperature;BME280_humidity;BME280_pressure;Samples;Min_cycle;Max_cycle;Signal;HPM_P1;HPM_P2
2022/05/02 00:01:16;;;;;;;27.33;16.88;;;11.00;99.90;;;;;;5029127;28;20363;-58
2022/05/02 00:03:44;;;;;;;29.52;16.80;;;11.00;99.90;;;;;;5029101;28;20049;-60
2022/05/02 00:06:12;;;;;;;28.25;16.02;;;11.00;99.90;;;;;;5060483;28;20066;-58
2022/05/02 00:08:39;;;;;;;30.17;16.95;;;11.00;99.90;;;;;;5028500;28;20057;-61
2022/05/02 00:11:07;;;;;;;34.28;18.35;;;11.00;99.90;;;;;;5027855;28;20409;-60
2022/05/02 00:13:35;;;;;;;29.40;17.00;;;11.00;99.90;;;;;;5025237;28;20049;-59
2022/05/02 00:16:05;;;;;;;28.10;17.63;;;11.00;99.90;;;;;;5029994;28;20052;-59
2022/05/02 00:18:33;;;;;;;27.17;16.67;;;11.00;99.90;;;;;;5030193;28;20049;-59
2022/05/02 00:21:00;;;;;;;27.95;18.15;;;11.00;99.90;;;;;;5029425;28;20045;-58
2022/05/02 00:23:29;;;;;;;30.00;17.63;;;10.90;99.90;;;;;;5041535;28;20049;-62
2022/05/02 00:25:56;;;;;;;28.20;16.90;;;10.90;99.90;;;;;;5029428;28;20046;-62
2022/05/02 00:28:24;;;;;;;28.13;16.60;;;10.90;99.90;;;;;;5026376;28;20045;-63
2022/05/02 00:30:52;;;;;;;30.00;16.17;;;11.00;99.90;;;;;;5028886;28;20378;-60
2022/05/02 00:33:20;;;;;;;26.27;16.50;;;10.90;99.90;;;;;;5030578;28;20689;-60
2022/05/02 00:35:47;;;;;;;30.48;17.30;;;10.90;99.90;;;;;;5028215;28;20045;-60
2022/05/02 00:38:15;;;;;;;28.23;16.90;;;10.90;99.90;;;;;;5029149;28;20064;-60
2022/05/02 00:40:43;;;;;;;28.98;16.25;;;11.00;99.90;;;;;;5029112;28;20049;-61
2022/05/02 00:43:10;;;;;;;26.30;16.45;;;11.00;99.90;;;;;;5028509;28;20562;-58
2022/05/02 00:45:38;;;;;;;29.25;17.42;;;11.00;99.90;;;;;;5028960;28;20048;-59
2022/05/02 00:48:07;;;;;;;29.80;17.85;;;11.00;99.90;;;;;;5027405;28;20048;-61
2022/05/02 00:50:37;;;;;;;30.35;17.45;;;10.90;99.90;;;;;;5028996;28;20072;-62
2022/05/02 00:53:06;;;;;;;;;;;11.00;99.90;;;;;;5037847;28;20064;-59
2022/05/02 00:55:35;;;;;;;28.63;16.77;;;10.90;99.90;;;;;;5030835;28;19928;-58
2022/05/02 00:58:05;;;;;;;29.63;16.38;;;10.90;99.90;;;;;;5026668;28;20309;-63
2022/05/02 01:00:36;;;;;;;32.42;17.35;;;10.90;99.90;;;;;;5027148;28;20420;-60
2022/05/02 01:03:06;;;;;;;30.52;18.05;;;10.90;99.90;;;;;;5028695;28;20064;-60
2022/05/02 01:08:30;;;;;;;31.35;17.90;;;10.90;99.90;;;;;;5027994;28;20049;-59
2022/05/02 01:10:59;;;;;;;29.92;17.17;;;10.90;99.90;;;;;;5027337;28;20072;-61
2022/05/02 01:13:47;;;;;;;33.53;18.35;;;10.80;99.90;;;;;;5024202;28;20045;-60
2022/05/02 01:16:22;;;;;;;32.80;18.73;;;10.80;99.90;;;;;;5027993;28;20401;-60
2022/05/02 01:18:53;;;;;;;31.55;18.00;;;10.80;99.90;;;;;;5028276;28;20231;-59
2022/05/02 01:21:26;;;;;;;31.75;18.08;;;10.80;99.90;;;;;;5026890;28;20041;-59
2022/05/02 01:23:59;;;;;;;29.50;17.08;;;10.80;99.90;;;;;;5027993;28;20048;-59
2022/05/02 01:26:27;;;;;;;29.83;17.70;;;10.80;99.90;;;;;;5009614;28;20777;-62
2022/05/02 01:29:00;;;;;;;29.98;17.88;;;10.80;99.90;;;;;;5031113;28;20057;-61
2022/05/02 01:31:28;;;;;;;32.13;18.33;;;10.80;99.90;;;;;;5028106;28;20052;-63
2022/05/02 01:33:56;;;;;;;28.13;17.13;;;10.80;99.90;;;;;;5029257;28;20045;-62
2022/05/02 01:36:24;;;;;;;32.60;18.23;;;10.80;99.90;;;;;;5029951;28;20393;-64
2022/05/02 01:38:52;;;;;;;30.00;17.17;;;10.80;99.90;;;;;;5030275;28;20068;-62
2022/05/02 01:41:20;;;;;;;28.65;17.75;;;10.80;99.90;;;;;;5030324;28;20045;-64
2022/05/02 01:43:48;;;;;;;31.70;18.55;;;10.70;99.90;;;;;;5029489;28;20046;-62
2022/05/02 01:46:16;;;;;;;38.47;17.38;;;10.80;99.90;;;;;;5029511;28;20049;-64
2022/05/02 01:48:44;;;;;;;34.38;18.60;;;10.80;99.90;;;;;;5030030;28;20054;-62
2022/05/02 01:51:12;;;;;;;32.42;17.33;;;10.80;99.90;;;;;;5029709;28;20630;-62
2022/05/02 01:53:39;;;;;;;27.98;16.88;;;10.70;99.90;;;;;;5030430;28;20050;-61
2022/05/02 01:56:07;;;;;;;30.77;17.85;;;10.80;99.90;;;;;;5028882;28;20048;-59
2022/05/02 01:58:34;;;;;;;31.00;18.10;;;10.70;99.90;;;;;;5019461;28;20045;-60
2022/05/02 02:01:02;;;;;;;33.22;18.67;;;10.70;99.90;;;;;;5019049;28;20037;-60
2022/05/02 02:03:30;;;;;;;31.73;18.02;;;10.70;99.90;;;;;;5031245;28;20392;-59
2022/05/02 02:05:58;;;;;;;33.88;18.75;;;10.70;99.90;;;;;;5029061;28;20037;-62
2022/05/02 02:08:27;;;;;;;32.50;17.90;;;10.70;99.90;;;;;;5030056;28;20049;-62
2022/05/02 02:10:58;;;;;;;30.08;17.27;;;10.70;99.90;;;;;;5029352;28;20037;-61
2022/05/02 02:13:26;;;;;;;32.28;16.80;;;10.70;99.90;;;;;;5030037;28;20065;-61
2022/05/02 02:15:54;;;;;;;33.28;18.42;;;10.70;99.90;;;;;;5029988;28;20057;-60
2022/05/02 02:18:22;;;;;;;30.63;17.92;;;10.60;99.90;;;;;;5029370;28;20045;-60
2022/05/02 02:20:53;;;;;;;32.15;18.48;;;10.60;99.90;;;;;;5031114;28;20038;-59
2022/05/02 02:23:22;;;;;;;35.63;18.33;;;10.60;99.90;;;;;;5029116;28;20053;-59
2022/05/02 02:25:50;;;;;;;35.13;19.47;;;10.60;99.90;;;;;;5029211;28;20041;-62
2022/05/02 02:28:18;;;;;;;33.50;18.65;;;10.60;99.90;;;;;;5031054;28;20045;-60
2022/05/02 02:30:45;;;;;;;32.80;18.48;;;10.60;99.90;;;;;;5030945;28;20599;-58
2022/05/02 02:33:13;;;;;;;34.90;19.67;;;10.60;99.90;;;;;;5029707;28;20050;-61
2022/05/02 02:35:41;;;;;;;34.08;19.95;;;10.60;99.90;;;;;;5028770;28;20481;-59
2022/05/02 02:38:14;;;;;;;38.85;19.42;;;10.60;99.90;;;;;;5028990;28;20048;-59
2022/05/02 02:40:42;;;;;;;32.33;18.50;;;10.50;99.90;;;;;;5033253;28;20046;-60
2022/05/02 02:43:09;;;;;;;36.53;20.38;;;10.60;99.90;;;;;;5033768;28;20049;-59
2022/05/02 02:45:37;;;;;;;35.65;20.35;;;10.50;99.90;;;;;;5033563;28;20046;-59
2022/05/02 02:48:06;;;;;;;37.17;19.48;;;10.50;99.90;;;;;;5034266;28;20503;-58
2022/05/02 02:50:34;;;;;;;34.15;19.17;;;10.50;99.90;;;;;;5033490;28;20061;-58
2022/05/02 02:53:01;;;;;;;37.55;19.38;;;10.50;99.90;;;;;;5032381;28;20076;-58
2022/05/02 02:55:29;;;;;;;35.72;19.85;;;10.50;99.90;;;;;;5033392;28;20052;-59
2022/05/02 02:57:57;;;;;;;31.17;18.00;;;10.50;99.90;;;;;;5034098;28;20053;-59
2022/05/02 03:00:24;;;;;;;31.58;18.80;;;10.50;99.90;;;;;;5033101;28;20393;-59
2022/05/02 03:02:53;;;;;;;30.33;17.77;;;10.50;99.90;;;;;;5034069;28;20045;-61
2022/05/02 03:08:09;;;;;;;31.17;17.95;;;10.50;99.90;;;;;;5032688;28;20037;-59
2022/05/02 03:10:37;;;;;;;28.00;16.02;;;10.50;99.90;;;;;;5032142;28;20052;-59
2022/05/02 03:13:04;;;;;;;34.80;17.85;;;10.50;99.90;;;;;;5033018;28;20037;-59
2022/05/02 03:15:33;;;;;;;31.48;17.60;;;10.40;99.90;;;;;;5031963;28;20053;-60
2022/05/02 03:18:07;;;;;;;32.42;17.83;;;10.40;99.90;;;;;;5033007;28;20037;-60
2022/05/02 03:20:34;;;;;;;31.23;17.13;;;10.40;99.90;;;;;;5032888;28;20045;-59
2022/05/02 03:23:02;;;;;;;28.55;16.42;;;10.40;99.90;;;;;;5031742;28;20374;-60
2022/05/02 03:25:29;;;;;;;30.50;17.75;;;10.30;99.90;;;;;;5033712;28;20048;-61
2022/05/02 03:27:57;;;;;;;30.92;16.67;;;10.40;99.90;;;;;;5031658;28;20049;-61
2022/05/02 03:30:25;;;;;;;31.13;17.05;;;10.30;99.90;;;;;;5033661;28;20053;-59
2022/05/02 03:32:52;;;;;;;30.50;17.95;;;10.30;99.90;;;;;;5031513;28;20053;-61
2022/05/02 03:35:20;;;;;;;32.55;17.50;;;10.30;99.90;;;;;;5015066;28;20049;-60
2022/05/02 03:37:48;;;;;;;30.90;17.67;;;10.30;99.90;;;;;;5032479;28;20041;-63
2022/05/02 03:40:15;;;;;;;30.45;16.70;;;10.30;99.90;;;;;;5032552;28;20046;-61
2022/05/02 03:42:43;;;;;;;30.63;17.63;;;10.30;99.90;;;;;;5033443;28;20050;-61
2022/05/02 03:45:11;;;;;;;27.45;15.85;;;10.30;99.90;;;;;;5033395;28;20053;-62
2022/05/02 03:47:38;;;;;;;27.10;15.20;;;10.30;99.90;;;;;;5032147;28;20038;-61
2022/05/02 03:50:06;;;;;;;27.05;15.82;;;10.30;99.90;;;;;;5032112;28;20050;-63
2022/05/02 03:52:34;;;;;;;31.00;17.15;;;10.20;99.90;;;;;;5032237;28;20049;-63
2022/05/02 03:55:02;;;;;;;29.40;17.23;;;10.20;99.90;;;;;;5032946;28;20049;-61
2022/05/02 03:57:30;;;;;;;30.23;16.13;;;10.30;99.90;;;;;;5031982;28;20052;-63
2022/05/02 03:59:58;;;;;;;33.47;18.30;;;10.30;99.90;;;;;;5031175;28;20577;-62
2022/05/02 04:02:25;;;;;;;33.30;17.95;;;10.30;99.90;;;;;;5032092;28;20616;-62
2022/05/02 04:04:53;;;;;;;33.95;17.65;;;10.20;99.90;;;;;;5031951;28;20396;-63
2022/05/02 04:07:20;;;;;;;33.63;18.38;;;10.30;99.90;;;;;;5032048;28;20045;-61
2022/05/02 04:09:48;;;;;;;33.22;18.00;;;10.20;99.90;;;;;;5030088;28;20103;-63
2022/05/02 04:12:16;;;;;;;35.75;17.92;;;10.20;99.90;;;;;;5029629;28;20050;-60
2022/05/02 04:14:44;;;;;;;33.58;19.25;;;10.20;99.90;;;;;;5031928;28;20052;-63
2022/05/02 04:17:12;;;;;;;36.83;18.45;;;10.20;99.90;;;;;;5031805;28;20492;-62
2022/05/02 04:19:40;;;;;;;37.38;20.13;;;10.20;99.90;;;;;;5031553;28;20493;-63
2022/05/02 04:22:08;;;;;;;41.95;20.50;;;10.20;99.90;;;;;;5031449;28;20057;-62
2022/05/02 04:24:35;;;;;;;35.22;19.10;;;10.20;99.90;;;;;;5032563;28;20049;-60
2022/05/02 04:27:03;;;;;;;38.45;19.65;;;10.20;99.90;;;;;;5031535;28;20385;-59
2022/05/02 04:29:30;;;;;;;40.33;20.27;;;10.20;99.90;;;;;;5031551;28;20057;-58
2022/05/02 04:31:58;;;;;;;39.42;20.55;;;10.20;99.90;;;;;;5032131;28;20045;-59
2022/05/02 04:34:26;;;;;;;39.08;19.92;;;10.20;99.90;;;;;;5032216;28;20037;-58
2022/05/02 04:36:54;;;;;;;34.72;18.98;;;10.30;99.90;;;;;;5031079;28;20049;-61
2022/05/02 04:39:21;;;;;;;38.85;20.58;;;10.30;99.90;;;;;;5032176;28;20056;-59
2022/05/02 04:41:49;;;;;;;43.35;20.30;;;10.30;99.90;;;;;;5029862;28;20050;-59
2022/05/02 04:44:17;;;;;;;36.22;19.58;;;10.20;99.90;;;;;;5031355;28;20044;-59
2022/05/02 04:46:44;;;;;;;38.33;20.08;;;10.30;99.90;;;;;;5031399;28;20045;-59
2022/05/02 04:49:12;;;;;;;34.78;19.45;;;10.30;99.90;;;;;;5011570;28;20069;-59
2022/05/02 04:51:40;;;;;;;36.60;19.98;;;10.30;99.90;;;;;;5026893;28;20041;-59
2022/05/02 04:54:07;;;;;;;33.90;19.15;;;10.30;99.90;;;;;;5026041;28;20401;-58
2022/05/02 04:56:35;;;;;;;37.33;18.70;;;10.30;99.90;;;;;;5022873;28;20041;-59
2022/05/02 04:59:05;;;;;;;32.72;18.73;;;10.30;99.90;;;;;;5026332;28;20500;-59
2022/05/02 05:01:33;;;;;;;33.95;18.63;;;10.30;99.90;;;;;;5027649;28;20053;-59
2022/05/02 05:04:00;;;;;;;35.72;18.75;;;10.30;99.90;;;;;;5020691;28;20067;-58
2022/05/02 05:06:28;;;;;;;32.72;17.58;;;10.30;99.90;;;;;;5024662;28;20042;-60
2022/05/02 05:08:56;;;;;;;35.63;17.95;;;10.30;99.90;;;;;;5024234;28;20060;-59
2022/05/02 05:11:35;;;;;;;35.00;18.58;;;10.30;99.90;;;;;;5026245;28;20432;-59
2022/05/02 05:17:19;;;;;;;;;;;10.30;99.90;;;;;;5023545;28;20049;-60
2022/05/02 05:20:07;;;;;;;36.63;18.83;;;10.30;99.90;;;;;;5011333;28;19929;-59
2022/05/02 05:23:15;;;;;;;33.90;17.33;;;10.30;99.90;;;;;;5028764;28;20412;-61
2022/05/02 05:26:04;;;;;;;38.17;18.10;;;10.40;99.90;;;;;;5027779;28;20053;-60
2022/05/02 05:29:04;;;;;;;33.67;17.88;;;10.40;99.90;;;;;;5021476;28;20052;-60
2022/05/02 05:31:33;;;;;;;;;;;10.40;99.90;;;;;;5028763;28;20046;-60
2022/05/02 05:34:16;;;;;;;32.00;16.55;;;10.40;99.90;;;;;;5028816;28;19921;-62
2022/05/02 05:37:08;;;;;;;33.90;16.88;;;10.40;99.90;;;;;;5028964;28;20045;-62
2022/05/02 05:39:59;;;;;;;33.35;17.20;;;10.40;99.90;;;;;;5015618;28;20512;-62
2022/05/02 05:42:47;;;;;;;34.97;17.67;;;10.40;99.90;;;;;;5027192;28;20091;-63
2022/05/02 05:45:30;;;;;;;34.65;18.35;;;10.40;99.90;;;;;;5028713;28;20408;-64
2022/05/02 05:48:11;;;;;;;35.83;17.98;;;10.40;99.90;;;;;;5027234;28;20042;-59
2022/05/02 05:51:05;;;;;;;33.70;17.17;;;10.50;99.90;;;;;;5025311;28;20068;-60
2022/05/02 05:53:57;;;;;;;33.60;17.27;;;10.50;99.90;;;;;;5020335;28;20066;-60
2022/05/02 05:57:07;;;;;;;32.92;17.27;;;10.60;99.90;;;;;;5015169;28;20038;-59
2022/05/02 06:00:07;;;;;;;35.88;17.80;;;10.60;99.90;;;;;;5015185;28;20500;-62
2022/05/02 06:02:57;;;;;;;29.88;16.38;;;10.60;99.90;;;;;;5025234;28;20046;-60
2022/05/02 06:05:26;;;;;;;31.08;15.95;;;10.60;99.90;;;;;;5021256;28;20045;-59
2022/05/02 06:07:55;;;;;;;31.00;16.52;;;10.60;99.90;;;;;;5028072;28;20405;-61
2022/05/02 06:10:25;;;;;;;35.60;16.48;;;10.70;99.90;;;;;;5017407;28;20048;-60
2022/05/02 06:12:54;;;;;;;31.50;16.38;;;10.70;99.90;;;;;;5019682;28;20065;-60
2022/05/02 06:18:29;;;;;;;;;;;10.80;99.90;;;;;;5030711;28;20041;-61
2022/05/02 06:21:02;;;;;;;27.33;16.10;;;10.80;99.90;;;;;;5017751;28;19928;-60
2022/05/02 06:23:33;;;;;;;31.98;16.45;;;10.90;99.90;;;;;;5028537;28;20037;-60
2022/05/02 06:26:02;;;;;;;29.80;16.77;;;10.90;99.90;;;;;;5029364;28;20044;-59
2022/05/02 06:28:37;;;;;;;29.55;15.40;;;11.00;99.90;;;;;;5033027;28;20049;-61
2022/05/02 06:31:09;;;;;;;30.77;16.80;;;11.00;99.90;;;;;;5028944;28;20405;-60
2022/05/02 06:33:38;;;;;;;30.00;16.45;;;11.00;99.90;;;;;;5029697;28;20045;-60
2022/05/02 06:36:29;;;;;;;32.47;17.63;;;11.10;99.90;;;;;;5028625;28;20455;-61
2022/05/02 06:39:18;;;;;;;31.92;15.32;;;11.20;99.90;;;;;;5024886;28;20052;-61
2022/05/02 06:42:29;;;;;;;29.25;16.25;;;11.20;99.90;;;;;;5021916;28;20049;-59
2022/05/02 06:45:32;;;;;;;30.85;16.83;;;11.30;99.90;;;;;;5025082;28;20049;-60
2022/05/02 06:48:17;;;;;;;34.15;16.90;;;11.30;99.90;;;;;;5003863;28;20060;-60
2022/05/02 06:50:55;;;;;;;29.27;16.90;;;11.40;99.90;;;;;;5006803;28;20056;-62
2022/05/02 06:53:50;;;;;;;33.05;16.52;;;11.50;99.90;;;;;;5025336;28;20061;-64
2022/05/02 06:56:32;;;;;;;34.53;17.55;;;11.50;99.90;;;;;;5026828;28;20041;-61
2022/05/02 06:59:31;;;;;;;32.03;17.42;;;11.60;99.90;;;;;;5026494;28;20041;-60
2022/05/02 07:02:12;;;;;;;30.98;17.58;;;11.60;99.90;;;;;;5028548;28;20041;-60
2022/05/02 07:04:44;;;;;;;;;;;11.60;99.90;;;;;;5029735;28;20053;-60
2022/05/02 07:07:22;;;;;;;29.13;17.33;;;11.70;99.90;;;;;;5021718;28;19929;-60
2022/05/02 07:10:02;;;;;;;31.80;17.83;;;11.80;99.90;;;;;;5019722;28;20040;-59
2022/05/02 07:12:32;;;;;;;30.30;16.60;;;11.80;99.90;;;;;;5026252;28;20068;-59
2022/05/02 07:15:12;;;;;;;;;;;11.90;99.90;;;;;;5034913;28;20037;-60
2022/05/02 07:17:42;;;;;;;30.60;15.20;;;11.90;99.90;;;;;;5029620;28;20412;-60
2022/05/02 07:20:46;;;;;;;29.80;16.73;;;12.00;99.90;;;;;;5017397;28;20501;-59
2022/05/02 07:23:33;;;;;;;28.98;17.17;;;12.00;99.90;;;;;;5021394;28;20052;-59
2022/05/02 07:26:07;;;;;;;33.13;16.92;;;12.10;99.90;;;;;;5021419;28;20049;-59
2022/05/02 07:28:44;;;;;;;25.75;16.27;;;12.20;99.90;;;;;;5053358;28;20393;-60
2022/05/02 07:31:22;;;;;;;29.00;16.52;;;12.30;99.90;;;;;;5027726;28;20513;-60
2022/05/02 07:33:54;;;;;;;29.75;17.17;;;12.40;99.90;;;;;;5028476;28;20055;-60
2022/05/02 07:36:24;;;;;;;31.65;16.83;;;12.40;99.90;;;;;;5031671;28;20064;-59
2022/05/02 07:38:54;;;;;;;26.98;16.10;;;12.50;99.90;;;;;;5029314;28;20728;-59
2022/05/02 07:41:26;;;;;;;30.38;17.48;;;12.50;99.90;;;;;;5029186;28;20045;-60
2022/05/02 07:44:12;;;;;;;28.45;15.63;;;12.50;99.90;;;;;;5029316;28;20048;-59
2022/05/02 07:46:42;;;;;;;27.13;15.73;;;12.60;99.90;;;;;;5027251;28;20060;-60
2022/05/02 07:49:13;;;;;;;26.40;15.63;;;12.60;99.90;;;;;;5021233;28;20485;-60
2022/05/02 07:51:46;;;;;;;29.92;16.95;;;12.70;99.90;;;;;;5023674;28;20053;-64
2022/05/02 07:54:19;;;;;;;28.02;16.27;;;12.80;99.90;;;;;;5014135;28;20045;-61
2022/05/02 07:56:53;;;;;;;25.73;15.90;;;12.80;99.90;;;;;;5022764;28;20042;-60
2022/05/02 07:59:25;;;;;;;30.30;16.75;;;12.90;99.90;;;;;;5028882;28;20065;-63
2022/05/02 08:01:53;;;;;;;27.27;16.20;;;12.90;99.90;;;;;;5027052;28;20049;-60
2022/05/02 08:04:23;;;;;;;26.23;16.25;;;13.00;99.90;;;;;;5024569;28;20054;-59
2022/05/02 08:07:12;;;;;;;;;;;13.00;99.90;;;;;;5030472;28;20397;-59
2022/05/02 08:10:25;;;;;;;26.42;15.65;;;13.10;99.90;;;;;;5025325;28;19921;-60
2022/05/02 08:12:53;;;;;;;33.38;15.93;;;13.10;99.90;;;;;;5018598;28;20042;-60
2022/05/02 08:15:26;;;;;;;26.65;15.48;;;13.20;99.90;;;;;;5019268;28;20060;-60
2022/05/02 08:18:13;;;;;;;24.27;14.63;;;13.20;99.90;;;;;;5021741;28;20042;-60
2022/05/02 08:20:47;;;;;;;22.55;13.98;;;13.30;99.90;;;;;;5027598;28;20056;-60
2022/05/02 08:29:54;;;;;;;27.17;16.20;;;13.40;99.90;;;;;;5014369;28;20057;-60
2022/05/02 08:32:29;;;;;;;26.00;15.00;;;13.50;99.90;;;;;;5018431;28;20033;-59
2022/05/02 08:35:35;;;;;;;25.95;15.63;;;13.50;99.90;;;;;;5032310;28;20045;-59
2022/05/02 08:38:26;;;;;;;27.20;16.15;;;13.50;99.90;;;;;;5030072;28;20045;-60
2022/05/02 08:41:06;;;;;;;28.73;16.15;;;13.60;99.90;;;;;;5030327;28;20060;-60
2022/05/02 08:43:55;;;;;;;27.33;15.80;;;13.70;99.90;;;;;;5025204;28;20041;-59
2022/05/02 08:46:38;;;;;;;28.23;15.47;;;13.80;99.90;;;;;;5010906;28;20042;-59
2022/05/02 08:49:33;;;;;;;23.52;14.93;;;13.80;99.90;;;;;;5026375;28;20547;-60
2022/05/02 08:52:21;;;;;;;26.50;14.57;;;13.90;99.90;;;;;;5032563;28;20064;-61
2022/05/02 08:55:14;;;;;;;26.02;15.70;;;13.90;99.90;;;;;;5029210;28;20045;-60
2022/05/02 08:57:56;;;;;;;25.92;15.68;;;13.90;99.90;;;;;;5015811;28;20050;-59
2022/05/02 09:00:26;;;;;;;28.40;14.70;;;14.00;99.90;;;;;;5021504;28;20045;-59
2022/05/02 09:03:14;;;;;;;25.60;15.90;;;14.00;99.90;;;;;;5010791;28;20421;-59
2022/05/02 09:06:24;;;;;;;24.60;14.60;;;14.10;99.90;;;;;;5026121;28;20166;-59
2022/05/02 09:09:23;;;;;;;22.85;14.05;;;14.10;99.90;;;;;;5024701;28;20052;-60
2022/05/02 09:12:15;;;;;;;26.17;15.45;;;14.10;99.90;;;;;;5029532;28;20049;-60
2022/05/02 09:15:04;;;;;;;26.25;15.70;;;14.10;99.90;;;;;;5018535;28;20056;-59
2022/05/02 09:17:50;;;;;;;23.63;15.00;;;14.10;99.90;;;;;;5029710;28;20058;-60
2022/05/02 09:20:24;;;;;;;22.73;14.07;;;14.20;99.90;;;;;;5020575;28;20056;-59
2022/05/02 09:23:07;;;;;;;23.75;15.27;;;14.20;99.90;;;;;;5028465;28;20042;-61
2022/05/02 09:25:57;;;;;;;23.55;14.65;;;14.20;99.90;;;;;;5020806;28;20050;-64
2022/05/02 09:28:49;;;;;;;26.13;16.63;;;14.30;99.90;;;;;;5026065;28;20041;-62
2022/05/02 09:31:21;;;;;;;22.05;14.55;;;14.40;99.90;;;;;;5029781;28;20051;-60
2022/05/02 09:34:14;;;;;;;25.15;14.98;;;14.40;99.90;;;;;;5030364;28;20707;-61
2022/05/02 09:37:14;;;;;;;24.65;15.35;;;14.50;99.90;;;;;;5028661;28;20116;-59
2022/05/02 09:39:52;;;;;;;22.00;13.63;;;14.60;99.90;;;;;;5029346;28;20049;-59
2022/05/02 09:42:51;;;;;;;25.38;14.63;;;14.70;99.90;;;;;;5010142;28;20050;-59
2022/05/02 09:51:53;;;;;;;24.60;13.50;;;14.90;99.90;;;;;;5025845;28;20489;-60
2022/05/02 09:57:36;;;;;;;19.10;12.68;;;15.00;99.90;;;;;;5035641;28;20071;-61
2022/05/02 10:03:09;;;;;;;22.13;13.73;;;15.10;99.90;;;;;;5028514;28;20532;-60
2022/05/02 10:05:51;;;;;;;21.50;14.65;;;15.10;99.90;;;;;;5028398;28;20515;-60
2022/05/02 10:08:48;;;;;;;20.17;14.30;;;15.10;99.90;;;;;;5026328;28;20045;-63
2022/05/02 10:11:21;;;;;;;19.95;14.45;;;15.10;99.90;;;;;;5020544;28;20498;-63
2022/05/02 10:14:18;;;;;;;20.90;14.70;;;15.20;99.90;;;;;;5027566;28;20041;-59
2022/05/02 10:17:06;;;;;;;19.98;12.60;;;15.20;99.90;;;;;;5034892;28;20053;-64
2022/05/02 10:20:20;;;;;;;15.75;10.38;;;15.30;99.90;;;;;;5032647;28;20041;-64
2022/05/02 10:23:03;;;;;;;16.20;11.15;;;15.30;99.90;;;;;;5020153;28;20539;-59
2022/05/02 10:25:56;;;;;;;17.77;11.63;;;15.30;99.90;;;;;;5023038;28;20050;-59
2022/05/02 10:28:54;;;;;;;19.98;11.30;;;15.20;99.90;;;;;;5026609;28;20052;-59
2022/05/02 10:31:27;;;;;;;18.15;11.95;;;15.20;99.90;;;;;;5030225;28;20046;-59
2022/05/02 10:34:01;;;;;;;18.02;12.02;;;15.20;99.90;;;;;;5030930;28;20050;-59
2022/05/02 10:36:36;;;;;;;18.73;11.63;;;15.20;99.90;;;;;;5030693;28;20056;-59
2022/05/02 10:39:34;;;;;;;16.40;11.45;;;15.30;99.90;;;;;;5029855;28;20473;-59
2022/05/02 10:42:06;;;;;;;19.02;11.48;;;15.30;99.90;;;;;;5049744;28;20053;-59
2022/05/02 10:44:52;;;;;;;17.98;10.93;;;15.40;99.90;;;;;;5028318;28;20065;-58
2022/05/02 10:47:24;;;;;;;21.30;13.40;;;15.40;99.90;;;;;;5029385;28;20053;-59
2022/05/02 10:50:16;;;;;;;20.55;12.30;;;15.40;99.90;;;;;;5032902;28;20041;-60
2022/05/02 10:53:10;;;;;;;19.17;12.63;;;15.40;99.90;;;;;;5032704;28;20393;-59
2022/05/02 10:56:12;;;;;;;20.58;13.48;;;15.40;99.90;;;;;;5026412;28;20050;-59
2022/05/02 10:58:43;;;;;;;20.73;13.40;;;15.40;99.90;;;;;;5030961;28;20049;-59
2022/05/02 11:01:26;;;;;;;20.65;14.07;;;15.40;99.90;;;;;;5035118;28;20052;-59
2022/05/02 11:04:08;;;;;;;22.60;13.68;;;15.40;99.90;;;;;;5030199;28;20056;-59
2022/05/02 11:06:59;;;;;;;22.83;13.93;;;15.40;99.90;;;;;;5029657;28;20053;-60
2022/05/02 11:09:40;;;;;;;27.13;15.07;;;15.40;99.90;;;;;;5018608;28;20490;-59
2022/05/02 11:12:19;;;;;;;22.80;14.88;;;15.40;99.90;;;;;;5030765;28;20497;-59
2022/05/02 11:15:39;;;;;;;24.88;15.32;;;15.30;99.90;;;;;;5019935;28;20532;-59
2022/05/02 11:21:25;;;;;;;25.10;15.80;;;15.40;99.90;;;;;;5020402;28;20053;-59
2022/05/02 11:24:17;;;;;;;24.55;15.18;;;15.30;99.90;;;;;;5034634;28;20060;-59
2022/05/02 11:26:57;;;;;;;27.27;15.05;;;15.30;99.90;;;;;;5032359;28;20622;-59
2022/05/02 11:29:37;;;;;;;27.20;15.15;;;15.30;99.90;;;;;;5027098;28;20135;-64
2022/05/02 11:32:16;;;;;;;20.08;13.25;;;15.30;99.90;;;;;;5021347;28;20050;-65
2022/05/02 11:35:10;;;;;;;20.23;13.50;;;15.40;99.90;;;;;;5025219;28;20045;-62
2022/05/02 11:38:02;;;;;;;21.88;14.52;;;15.40;99.90;;;;;;5061156;28;20052;-59
2022/05/02 11:40:41;;;;;;;21.73;13.75;;;15.40;99.90;;;;;;5029200;28;21398;-59
2022/05/02 11:43:11;;;;;;;22.80;14.00;;;15.40;99.90;;;;;;5021488;28;20038;-59
2022/05/02 11:45:47;;;;;;;18.38;13.27;;;15.40;99.90;;;;;;5020000;28;20298;-59
2022/05/02 11:48:40;;;;;;;21.35;12.88;;;15.40;99.90;;;;;;5031646;28;20038;-59
2022/05/02 11:51:27;;;;;;;20.73;13.45;;;15.40;99.90;;;;;;5031583;28;20053;-64
2022/05/02 11:53:57;;;;;;;21.38;13.73;;;15.40;99.90;;;;;;5019611;28;20061;-64
2022/05/02 11:56:30;;;;;;;;;;;15.50;99.90;;;;;;5028510;28;20045;-63
2022/05/02 11:59:07;;;;;;;25.10;14.82;;;15.60;99.90;;;;;;5026989;28;19935;-65
2022/05/02 12:01:37;;;;;;;28.52;14.65;;;15.60;99.90;;;;;;5019216;28;20410;-60
2022/05/02 12:04:07;;;;;;;26.73;15.25;;;15.60;99.90;;;;;;5027129;28;20388;-64
2022/05/02 12:06:54;;;;;;;25.08;14.30;;;15.60;99.90;;;;;;5020020;28;20401;-59
2022/05/02 12:09:25;;;;;;;29.17;16.90;;;15.50;99.90;;;;;;5029124;28;20042;-60
2022/05/02 12:11:54;;;;;;;27.50;16.88;;;15.50;99.90;;;;;;5028576;28;20045;-59
2022/05/02 12:14:22;;;;;;;32.10;16.38;;;15.50;99.90;;;;;;5030515;28;20053;-59
2022/05/02 12:17:10;;;;;;;31.75;15.95;;;15.50;99.90;;;;;;5032287;28;20197;-59
2022/05/02 12:19:41;;;;;;;31.77;16.80;;;15.50;99.90;;;;;;5027036;28;20053;-59
2022/05/02 12:22:16;;;;;;;27.33;16.77;;;15.50;99.90;;;;;;5021248;28;20065;-58
2022/05/02 12:24:47;;;;;;;29.27;15.77;;;15.50;99.90;;;;;;5026756;28;20046;-59
2022/05/02 12:27:18;;;;;;;26.33;14.70;;;15.50;99.90;;;;;;5025353;28;20042;-59
2022/05/02 12:29:54;;;;;;;;;;;15.50;99.90;;;;;;5029695;28;20432;-59
2022/05/02 12:32:25;;;;;;;30.08;15.63;;;15.50;99.90;;;;;;5020256;28;19921;-59
2022/05/02 12:34:56;;;;;;;27.00;15.77;;;15.50;99.90;;;;;;5025844;28;20053;-59
2022/05/02 12:37:31;;;;;;;27.00;15.52;;;15.60;99.90;;;;;;5030550;28;20041;-64
2022/05/02 12:40:06;;;;;;;26.60;15.32;;;15.60;99.90;;;;;;5030446;28;20072;-63
2022/05/02 12:42:47;;;;;;;30.38;16.27;;;15.60;99.90;;;;;;5020173;28;20049;-63
2022/05/02 12:45:17;;;;;;;29.40;16.05;;;15.60;99.90;;;;;;5027288;28;20034;-62
2022/05/02 12:47:58;;;;;;;34.28;18.58;;;15.70;99.90;;;;;;5030291;28;20042;-62
2022/05/02 12:50:29;;;;;;;33.67;17.67;;;15.60;99.90;;;;;;5018974;28;20509;-62
2022/05/02 12:53:01;;;;;;;30.58;17.75;;;15.70;99.90;;;;;;5024418;28;20049;-59
2022/05/02 12:55:38;;;;;;;29.92;17.75;;;15.70;99.90;;;;;;5021042;28;20049;-59
2022/05/02 13:01:01;;;;;;;32.17;17.75;;;15.60;99.90;;;;;;5021335;28;20525;-59
2022/05/02 13:03:31;;;;;;;30.67;17.80;;;15.60;99.90;;;;;;5015811;28;20049;-60
2022/05/02 13:06:08;;;;;;;36.83;18.67;;;15.60;99.90;;;;;;5028478;28;20042;-59
2022/05/02 13:08:38;;;;;;;31.55;17.45;;;15.60;99.90;;;;;;5021002;28;20551;-60
2022/05/02 13:11:15;;;;;;;31.80;17.23;;;15.50;99.90;;;;;;5016663;28;20045;-60
2022/05/02 13:13:54;;;;;;;36.72;18.63;;;15.60;99.90;;;;;;5026862;28;20053;-59
2022/05/02 13:16:29;;;;;;;27.25;17.30;;;15.60;99.90;;;;;;5027072;28;20044;-59
2022/05/02 13:19:03;;;;;;;31.52;17.35;;;15.50;99.90;;;;;;5024434;28;20064;-60
2022/05/02 13:21:32;;;;;;;30.60;17.70;;;15.50;99.90;;;;;;5023639;28;20064;-59
2022/05/02 13:24:12;;;;;;;34.60;18.10;;;15.40;99.90;;;;;;5026675;28;20444;-59
2022/05/02 13:26:46;;;;;;;27.83;17.27;;;15.40;99.90;;;;;;5027286;28;20049;-59
2022/05/02 13:29:43;;;;;;;27.08;17.15;;;15.40;99.90;;;;;;5028497;28;20052;-59
2022/05/02 13:32:23;;;;;;;28.38;16.83;;;15.30;99.90;;;;;;5022722;28;20052;-60
2022/05/02 13:35:09;;;;;;;28.00;17.92;;;15.30;99.90;;;;;;5023334;28;20067;-59
2022/05/02 13:38:01;;;;;;;27.45;18.00;;;15.30;99.90;;;;;;5025176;28;20056;-59
2022/05/02 13:40:37;;;;;;;27.60;17.42;;;15.30;99.90;;;;;;5026989;28;20058;-60
2022/05/02 13:43:11;;;;;;;26.90;16.88;;;15.40;99.90;;;;;;5022277;28;20061;-59
2022/05/02 13:45:54;;;;;;;31.35;18.15;;;15.30;99.90;;;;;;5023389;28;20057;-59
2022/05/02 13:48:25;;;;;;;32.40;18.70;;;15.30;99.90;;;;;;5022304;28;20049;-60
2022/05/02 13:51:32;;;;;;;30.77;19.20;;;15.30;99.90;;;;;;5028481;28;20041;-60
2022/05/02 13:54:28;;;;;;;30.52;19.08;;;15.30;99.90;;;;;;5028295;28;20392;-58